sensor_id;sensor_type;location;lat;lon;timestamp;temperature;humidity
28071;DHT22;15383;48.408;9.968;2024-02-28T00:01:21;10.20;99.90
28071;DHT22;15383;48.408;9.968;2024-02-28T00:03:46;10.20;99.90
28071;DHT22;15383;48.408;9.968;2024-02-28T00:06:12;10.20;99.90
28071;DHT22;15383;48.408;9.968;2024-02-28T00:08:38;10.20;99.90
28071;DHT22;15383;48.408;9.968;2024-02-28T00:11:03;10.20;99.90
28071;DHT22;15383;48.408;9.968;2024-02-28T00:13:29;10.20;99.90
28071;DHT22;15383;48.408;9.968;2024-02-28T00:15:54;10.20;99.90
28071;DHT22;15383;48.408;9.968;2024-02-28T00:18:20;10.20;99.90
28071;DHT22;15383;48.408;9.968;2024-02-28T00:20:45;10.20;99.90
28071;DHT22;15383;48.408;9.968;2024-02-28T00:23:11;10.20;99.90
28071;DHT22;15383;48.408;9.968;2024-02-28T00:25:36;10.20;99.90
28071;DHT22;15383;48.408;9.968;2024-02-28T00:28:02;10.20;99.90
28071;DHT22;15383;48.408;9.968;2024-02-28T00:30:28;10.20;99.90
28071;DHT22;15383;48.408;9.968;2024-02-28T00:32:54;10.20;99.90
28071;DHT22;15383;48.408;9.968;2024-02-28T00:35:20;10.20;99.90
28071;DHT22;15383;48.408;9.968;2024-02-28T00:37:45;10.20;99.90
28071;DHT22;15383;48.408;9.968;2024-02-28T00:40:11;10.20;99.90
28071;DHT22;15383;48.408;9.968;2024-02-28T00:42:37;10.20;99.90
28071;DHT22;15383;48.408;9.968;2024-02-28T00:45:03;10.20;99.90
28071;DHT22;15383;48.408;9.968;2024-02-28T00:47:29;10.20;99.90
28071;DHT22;15383;48.408;9.968;2024-02-28T00:49:54;10.20;99.90
28071;DHT22;15383;48.408;9.968;2024-02-28T00:52:20;10.20;99.90
28071;DHT22;15383;48.408;9.968;2024-02-28T00:54:45;10.20;99.90
28071;DHT22;15383;48.408;9.968;2024-02-28T00:57:11;10.20;99.90
28071;DHT22;15383;48.408;9.968;2024-02-28T00:59:36;10.20;99.90
28071;DHT22;15383;48.408;9.968;2024-02-28T01:02:02;10.20;99.90
28071;DHT22;15383;48.408;9.968;2024-02-28T01:04:28;10.20;99.90
28071;DHT22;15383;48.408;9.968;2024-02-28T01:06:54;10.20;99.90
28071;DHT22;15383;48.408;9.968;2024-02-28T01:09:21;10.20;99.90
28071;DHT22;15383;48.408;9.968;2024-02-28T01:11:47;10.20;99.90
28071;DHT22;15383;48.408;9.968;2024-02-28T01:14:12;10.20;99.90
28071;DHT22;15383;48.408;9.968;2024-02-28T01:16:38;10.20;99.90
28071;DHT22;15383;48.408;9.968;2024-02-28T01:19:03;10.20;99.90
28071;DHT22;15383;48.408;9.968;2024-02-28T01:21:29;10.20;99.90
28071;DHT22;15383;48.408;9.968;2024-02-28T01:23:54;10.20;99.90
28071;DHT22;15383;48.408;9.968;2024-02-28T01:26:20;10.20;99.90
28071;DHT22;15383;48.408;9.968;2024-02-28T01:28:47;10.10;99.90
28071;DHT22;15383;48.408;9.968;2024-02-28T01:31:13;10.20;99.90
28071;DHT22;15383;48.408;9.968;2024-02-28T01:33:39;10.10;99.90
28071;DHT22;15383;48.408;9.968;2024-02-28T01:36:06;10.10;99.90
28071;DHT22;15383;48.408;9.968;2024-02-28T01:38:32;10.20;99.90
28071;DHT22;15383;48.408;9.968;2024-02-28T01:40:57;10.20;99.90
28071;DHT22;15383;48.408;9.968;2024-02-28T01:43:23;10.10;99.90
28071;DHT22;15383;48.408;9.968;2024-02-28T01:45:49;10.10;99.90
28071;DHT22;15383;48.408;9.968;2024-02-28T01:48:16;10.20;99.90
28071;DHT22;15383;48.408;9.968;2024-02-28T01:50:41;10.20;99.90
28071;DHT22;15383;48.408;9.968;2024-02-28T01:53:08;10.20;99.90
28071;DHT22;15383;48.408;9.968;2024-02-28T01:55:35;10.10;99.90
28071;DHT22;15383;48.408;9.968;2024-02-28T01:58:02;10.20;99.90
28071;DHT22;15383;48.408;9.968;2024-02-28T02:00:32;10.20;99.90
28071;DHT22;15383;48.408;9.968;2024-02-28T02:02:59;10.20;99.90
28071;DHT22;15383;48.408;9.968;2024-02-28T02:05:25;10.20;99.90
28071;DHT22;15383;48.408;9.968;2024-02-28T02:07:51;10.20;99.90
28071;DHT22;15383;48.408;9.968;2024-02-28T02:10:17;10.10;99.90
28071;DHT22;15383;48.408;9.968;2024-02-28T02:12:42;10.20;99.90
28071;DHT22;15383;48.408;9.968;2024-02-28T02:15:08;10.20;99.90
28071;DHT22;15383;48.408;9.968;2024-02-28T02:17:33;10.10;99.90
28071;DHT22;15383;48.408;9.968;2024-02-28T02:19:59;10.20;99.90
28071;DHT22;15383;48.408;9.968;2024-02-28T02:24:57;10.10;99.90
28071;DHT22;15383;48.408;9.968;2024-02-28T02:27:24;10.10;99.90
28071;DHT22;15383;48.408;9.968;2024-02-28T02:29:50;10.10;99.90
28071;DHT22;15383;48.408;9.968;2024-02-28T02:32:15;10.10;99.90
28071;DHT22;15383;48.408;9.968;2024-02-28T02:34:41;10.10;99.90
28071;DHT22;15383;48.408;9.968;2024-02-28T02:37:07;10.10;99.90
28071;DHT22;15383;48.408;9.968;2024-02-28T02:39:34;10.10;99.90
28071;DHT22;15383;48.408;9.968;2024-02-28T02:41:59;10.10;99.90
28071;DHT22;15383;48.408;9.968;2024-02-28T02:44:25;10.10;99.90
28071;DHT22;15383;48.408;9.968;2024-02-28T02:46:51;10.20;99.90
28071;DHT22;15383;48.408;9.968;2024-02-28T02:49:16;10.10;99.90
28071;DHT22;15383;48.408;9.968;2024-02-28T02:51:44;10.10;99.90
28071;DHT22;15383;48.408;9.968;2024-02-28T02:54:09;10.10;99.90
28071;DHT22;15383;48.408;9.968;2024-02-28T02:56:36;10.10;99.90
28071;DHT22;15383;48.408;9.968;2024-02-28T02:59:01;10.10;99.90
28071;DHT22;15383;48.408;9.968;2024-02-28T03:01:27;10.10;99.90
28071;DHT22;15383;48.408;9.968;2024-02-28T03:03:52;10.20;99.90
28071;DHT22;15383;48.408;9.968;2024-02-28T03:06:18;10.10;99.90
28071;DHT22;15383;48.408;9.968;2024-02-28T03:08:43;10.10;99.90
28071;DHT22;15383;48.408;9.968;2024-02-28T03:11:09;10.20;99.90
28071;DHT22;15383;48.408;9.968;2024-02-28T03:13:35;10.10;99.90
28071;DHT22;15383;48.408;9.968;2024-02-28T03:16:00;10.10;99.90
28071;DHT22;15383;48.408;9.968;2024-02-28T03:18:28;10.10;99.90
28071;DHT22;15383;48.408;9.968;2024-02-28T03:20:53;10.10;99.90
28071;DHT22;15383;48.408;9.968;2024-02-28T03:23:19;10.10;99.90
28071;DHT22;15383;48.408;9.968;2024-02-28T03:25:45;10.10;99.90
28071;DHT22;15383;48.408;9.968;2024-02-28T03:28:10;10.10;99.90
28071;DHT22;15383;48.408;9.968;2024-02-28T03:30:36;10.10;99.90
28071;DHT22;15383;48.408;9.968;2024-02-28T03:33:01;10.10;99.90
28071;DHT22;15383;48.408;9.968;2024-02-28T03:35:27;10.10;99.90
28071;DHT22;15383;48.408;9.968;2024-02-28T03:37:52;10.10;99.90
28071;DHT22;15383;48.408;9.968;2024-02-28T03:40:18;10.10;99.90
28071;DHT22;15383;48.408;9.968;2024-02-28T03:42:43;10.10;99.90
28071;DHT22;15383;48.408;9.968;2024-02-28T03:45:09;10.10;99.90
28071;DHT22;15383;48.408;9.968;2024-02-28T03:47:35;10.10;99.90
28071;DHT22;15383;48.408;9.968;2024-02-28T03:50:00;10.10;99.90
28071;DHT22;15383;48.408;9.968;2024-02-28T03:52:29;10.10;99.90
28071;DHT22;15383;48.408;9.968;2024-02-28T03:54:55;10.10;99.90
28071;DHT22;15383;48.408;9.968;2024-02-28T03:57:21;10.10;99.90
28071;DHT22;15383;48.408;9.968;2024-02-28T03:59:46;10.10;99.90
28071;DHT22;15383;48.408;9.968;2024-02-28T04:02:12;10.10;99.90
28071;DHT22;15383;48.408;9.968;2024-02-28T04:04:37;10.10;99.90
28071;DHT22;15383;48.408;9.968;2024-02-28T04:07:03;10.10;99.90
28071;DHT22;15383;48.408;9.968;2024-02-28T04:09:28;10.10;99.90
28071;DHT22;15383;48.408;9.968;2024-02-28T04:11:54;10.10;99.90
28071;DHT22;15383;48.408;9.968;2024-02-28T04:14:19;10.10;99.90
28071;DHT22;15383;48.408;9.968;2024-02-28T04:16:45;10.10;99.90
28071;DHT22;15383;48.408;9.968;2024-02-28T04:19:11;10.10;99.90
28071;DHT22;15383;48.408;9.968;2024-02-28T04:21:37;10.10;99.90
28071;DHT22;15383;48.408;9.968;2024-02-28T04:24:04;10.10;99.90
28071;DHT22;15383;48.408;9.968;2024-02-28T04:26:29;10.10;99.90
28071;DHT22;15383;48.408;9.968;2024-02-28T04:28:55;10.10;99.90
28071;DHT22;15383;48.408;9.968;2024-02-28T04:31:21;10.10;99.90
28071;DHT22;15383;48.408;9.968;2024-02-28T04:33:47;10.10;99.90
28071;DHT22;15383;48.408;9.968;2024-02-28T04:36:12;10.10;99.90
28071;DHT22;15383;48.408;9.968;2024-02-28T04:38:38;10.10;99.90
28071;DHT22;15383;48.408;9.968;2024-02-28T04:41:03;10.10;99.90
28071;DHT22;15383;48.408;9.968;2024-02-28T04:43:29;10.10;99.90
28071;DHT22;15383;48.408;9.968;2024-02-28T04:45:54;10.10;99.90
28071;DHT22;15383;48.408;9.968;2024-02-28T04:48:20;10.10;99.90
28071;DHT22;15383;48.408;9.968;2024-02-28T04:50:46;10.10;99.90
28071;DHT22;15383;48.408;9.968;2024-02-28T04:53:11;10.10;99.90
28071;DHT22;15383;48.408;9.968;2024-02-28T04:55:37;10.10;99.90
28071;DHT22;15383;48.408;9.968;2024-02-28T04:58:02;10.10;99.90
28071;DHT22;15383;48.408;9.968;2024-02-28T05:00:28;10.10;99.90
28071;DHT22;15383;48.408;9.968;2024-02-28T05:02:53;10.10;99.90
28071;DHT22;15383;48.408;9.968;2024-02-28T05:05:19;10.10;99.90
28071;DHT22;15383;48.408;9.968;2024-02-28T05:07:44;10.10;99.90
28071;DHT22;15383;48.408;9.968;2024-02-28T05:10:10;10.10;99.90
28071;DHT22;15383;48.408;9.968;2024-02-28T05:12:36;10.10;99.90
28071;DHT22;15383;48.408;9.968;2024-02-28T05:15:01;10.10;99.90
28071;DHT22;15383;48.408;9.968;2024-02-28T05:17:27;10.10;99.90
28071;DHT22;15383;48.408;9.968;2024-02-28T05:19:53;10.10;99.90
28071;DHT22;15383;48.408;9.968;2024-02-28T05:22:18;10.10;99.90
28071;DHT22;15383;48.408;9.968;2024-02-28T05:24:46;10.10;99.90
28071;DHT22;15383;48.408;9.968;2024-02-28T05:27:11;10.10;99.90
28071;DHT22;15383;48.408;9.968;2024-02-28T05:29:37;10.10;99.90
28071;DHT22;15383;48.408;9.968;2024-02-28T05:32:03;10.10;99.90
28071;DHT22;15383;48.408;9.968;2024-02-28T05:34:29;10.10;99.90
28071;DHT22;15383;48.408;9.968;2024-02-28T05:36:55;10.10;99.90
28071;DHT22;15383;48.408;9.968;2024-02-28T05:39:20;10.10;99.90
28071;DHT22;15383;48.408;9.968;2024-02-28T05:41:46;10.10;99.90
28071;DHT22;15383;48.408;9.968;2024-02-28T05:44:12;10.10;99.90
28071;DHT22;15383;48.408;9.968;2024-02-28T05:46:37;10.10;99.90
28071;DHT22;15383;48.408;9.968;2024-02-28T05:49:04;10.10;99.90
28071;DHT22;15383;48.408;9.968;2024-02-28T05:51:29;10.10;99.90
28071;DHT22;15383;48.408;9.968;2024-02-28T05:53:55;10.10;99.90
28071;DHT22;15383;48.408;9.968;2024-02-28T05:56:20;10.10;99.90
28071;DHT22;15383;48.408;9.968;2024-02-28T05:58:47;10.10;99.90
28071;DHT22;15383;48.408;9.968;2024-02-28T06:01:15;10.10;99.90
28071;DHT22;15383;48.408;9.968;2024-02-28T06:03:42;10.10;99.90
28071;DHT22;15383;48.408;9.968;2024-02-28T06:06:08;10.10;99.90
28071;DHT22;15383;48.408;9.968;2024-02-28T06:08:35;10.10;99.90
28071;DHT22;15383;48.408;9.968;2024-02-28T06:11:02;10.10;99.90
28071;DHT22;15383;48.408;9.968;2024-02-28T06:13:28;10.10;99.90
28071;DHT22;15383;48.408;9.968;2024-02-28T06:15:56;10.10;99.90
28071;DHT22;15383;48.408;9.968;2024-02-28T06:18:23;10.00;99.90
28071;DHT22;15383;48.408;9.968;2024-02-28T06:20:49;10.10;99.90
28071;DHT22;15383;48.408;9.968;2024-02-28T06:23:15;10.10;99.90
28071;DHT22;15383;48.408;9.968;2024-02-28T06:25:40;10.10;99.90
28071;DHT22;15383;48.408;9.968;2024-02-28T06:28:06;10.00;99.90
28071;DHT22;15383;48.408;9.968;2024-02-28T06:30:32;10.10;99.90
28071;DHT22;15383;48.408;9.968;2024-02-28T06:33:01;10.00;99.90
28071;DHT22;15383;48.408;9.968;2024-02-28T06:35:27;10.10;99.90
28071;DHT22;15383;48.408;9.968;2024-02-28T06:37:53;10.00;99.90
28071;DHT22;15383;48.408;9.968;2024-02-28T06:40:19;10.10;99.90
28071;DHT22;15383;48.408;9.968;2024-02-28T06:42:45;10.10;99.90
28071;DHT22;15383;48.408;9.968;2024-02-28T06:45:11;10.10;99.90
28071;DHT22;15383;48.408;9.968;2024-02-28T06:47:36;10.00;99.90
28071;DHT22;15383;48.408;9.968;2024-02-28T06:50:05;10.10;99.90
28071;DHT22;15383;48.408;9.968;2024-02-28T06:52:31;10.00;99.90
28071;DHT22;15383;48.408;9.968;2024-02-28T06:54:57;10.00;99.90
28071;DHT22;15383;48.408;9.968;2024-02-28T06:57:23;10.10;99.90
28071;DHT22;15383;48.408;9.968;2024-02-28T06:59:48;10.00;99.90
28071;DHT22;15383;48.408;9.968;2024-02-28T07:02:14;10.10;99.90
28071;DHT22;15383;48.408;9.968;2024-02-28T07:04:41;10.10;99.90
28071;DHT22;15383;48.408;9.968;2024-02-28T07:07:07;10.10;99.90
28071;DHT22;15383;48.408;9.968;2024-02-28T07:09:33;10.10;99.90
28071;DHT22;15383;48.408;9.968;2024-02-28T07:11:59;10.10;99.90
28071;DHT22;15383;48.408;9.968;2024-02-28T07:14:26;10.10;99.90
28071;DHT22;15383;48.408;9.968;2024-02-28T07:16:51;10.10;99.90
28071;DHT22;15383;48.408;9.968;2024-02-28T07:19:17;10.10;99.90
28071;DHT22;15383;48.408;9.968;2024-02-28T07:21:44;10.10;99.90
28071;DHT22;15383;48.408;9.968;2024-02-28T07:24:10;10.10;99.90
28071;DHT22;15383;48.408;9.968;2024-02-28T07:26:35;10.10;99.90
28071;DHT22;15383;48.408;9.968;2024-02-28T07:29:01;10.00;99.90
28071;DHT22;15383;48.408;9.968;2024-02-28T07:31:26;10.10;99.90
28071;DHT22;15383;48.408;9.968;2024-02-28T07:33:52;10.10;99.90
28071;DHT22;15383;48.408;9.968;2024-02-28T07:36:17;10.10;99.90
28071;DHT22;15383;48.408;9.968;2024-02-28T07:38:43;10.00;99.90
28071;DHT22;15383;48.408;9.968;2024-02-28T07:41:08;10.00;99.90
28071;DHT22;15383;48.408;9.968;2024-02-28T07:43:35;10.00;99.90
28071;DHT22;15383;48.408;9.968;2024-02-28T07:46:07;10.10;99.90
28071;DHT22;15383;48.408;9.968;2024-02-28T07:48:33;10.10;99.90
28071;DHT22;15383;48.408;9.968;2024-02-28T07:50:59;10.00;99.90
28071;DHT22;15383;48.408;9.968;2024-02-28T07:53:24;10.10;99.90
28071;DHT22;15383;48.408;9.968;2024-02-28T07:55:50;10.10;99.90
28071;DHT22;15383;48.408;9.968;2024-02-28T07:58:15;10.10;99.90
28071;DHT22;15383;48.408;9.968;2024-02-28T08:00:42;10.10;99.90
28071;DHT22;15383;48.408;9.968;2024-02-28T08:03:09;10.10;99.90
28071;DHT22;15383;48.408;9.968;2024-02-28T08:05:34;10.10;99.90
28071;DHT22;15383;48.408;9.968;2024-02-28T08:08:05;10.10;99.90
28071;DHT22;15383;48.408;9.968;2024-02-28T08:10:31;10.10;99.90
28071;DHT22;15383;48.408;9.968;2024-02-28T08:12:56;10.10;99.90
28071;DHT22;15383;48.408;9.968;2024-02-28T08:15:22;10.10;99.90
28071;DHT22;15383;48.408;9.968;2024-02-28T08:17:47;10.10;99.90
28071;DHT22;15383;48.408;9.968;2024-02-28T08:20:13;10.10;99.90
28071;DHT22;15383;48.408;9.968;2024-02-28T08:22:39;10.10;99.90
28071;DHT22;15383;48.408;9.968;2024-02-28T08:25:05;10.10;99.90
28071;DHT22;15383;48.408;9.968;2024-02-28T08:27:30;10.10;99.90
28071;DHT22;15383;48.408;9.968;2024-02-28T08:29:56;10.10;99.90
28071;DHT22;15383;48.408;9.968;2024-02-28T08:32:21;10.10;99.90
28071;DHT22;15383;48.408;9.968;2024-02-28T08:34:47;10.10;99.90
28071;DHT22;15383;48.408;9.968;2024-02-28T08:37:13;10.10;99.90
28071;DHT22;15383;48.408;9.968;2024-02-28T08:39:39;10.10;99.90
28071;DHT22;15383;48.408;9.968;2024-02-28T08:42:05;10.10;99.90
28071;DHT22;15383;48.408;9.968;2024-02-28T08:44:31;10.10;99.90
28071;DHT22;15383;48.408;9.968;2024-02-28T08:46:56;10.10;99.90
28071;DHT22;15383;48.408;9.968;2024-02-28T08:49:22;10.10;99.90
28071;DHT22;15383;48.408;9.968;2024-02-28T08:51:48;10.10;99.90
28071;DHT22;15383;48.408;9.968;2024-02-28T08:54:13;10.10;99.90
28071;DHT22;15383;48.408;9.968;2024-02-28T08:56:39;10.10;99.90
28071;DHT22;15383;48.408;9.968;2024-02-28T08:59:04;10.20;99.90
28071;DHT22;15383;48.408;9.968;2024-02-28T09:01:30;10.10;99.90
28071;DHT22;15383;48.408;9.968;2024-02-28T09:03:56;10.10;99.90
28071;DHT22;15383;48.408;9.968;2024-02-28T09:06:21;10.20;99.90
28071;DHT22;15383;48.408;9.968;2024-02-28T09:08:47;10.10;99.90
28071;DHT22;15383;48.408;9.968;2024-02-28T09:11:12;10.10;99.90
28071;DHT22;15383;48.408;9.968;2024-02-28T09:13:38;10.20;99.90
28071;DHT22;15383;48.408;9.968;2024-02-28T09:16:03;10.20;99.90
28071;DHT22;15383;48.408;9.968;2024-02-28T09:18:29;10.10;99.90
28071;DHT22;15383;48.408;9.968;2024-02-28T09:20:55;10.10;99.90
28071;DHT22;15383;48.408;9.968;2024-02-28T09:23:20;10.10;99.90
28071;DHT22;15383;48.408;9.968;2024-02-28T09:25:46;10.10;99.90
28071;DHT22;15383;48.408;9.968;2024-02-28T09:28:12;10.10;99.90
28071;DHT22;15383;48.408;9.968;2024-02-28T09:30:39;10.20;99.90
28071;DHT22;15383;48.408;9.968;2024-02-28T09:33:05;10.20;99.90
28071;DHT22;15383;48.408;9.968;2024-02-28T09:35:30;10.20;99.90
28071;DHT22;15383;48.408;9.968;2024-02-28T09:37:56;10.20;99.90
28071;DHT22;15383;48.408;9.968;2024-02-28T09:40:22;10.20;99.90
28071;DHT22;15383;48.408;9.968;2024-02-28T09:42:53;10.20;99.90
28071;DHT22;15383;48.408;9.968;2024-02-28T09:45:23;10.20;99.90
28071;DHT22;15383;48.408;9.968;2024-02-28T09:47:49;10.20;99.90
28071;DHT22;15383;48.408;9.968;2024-02-28T09:50:16;10.20;99.90
28071;DHT22;15383;48.408;9.968;2024-02-28T09:52:43;10.20;99.90
28071;DHT22;15383;48.408;9.968;2024-02-28T09:55:08;10.10;99.90
28071;DHT22;15383;48.408;9.968;2024-02-28T09:57:35;10.10;99.90
28071;DHT22;15383;48.408;9.968;2024-02-28T10:00:01;10.20;99.90
28071;DHT22;15383;48.408;9.968;2024-02-28T10:02:28;10.10;99.90
28071;DHT22;15383;48.408;9.968;2024-02-28T10:04:56;10.10;99.90
28071;DHT22;15383;48.408;9.968;2024-02-28T10:07:23;10.10;99.90
28071;DHT22;15383;48.408;9.968;2024-02-28T10:09:48;10.20;99.90
28071;DHT22;15383;48.408;9.968;2024-02-28T10:12:14;10.20;99.90
28071;DHT22;15383;48.408;9.968;2024-02-28T10:14:40;10.10;99.90
28071;DHT22;15383;48.408;9.968;2024-02-28T10:17:06;10.20;99.90
28071;DHT22;15383;48.408;9.968;2024-02-28T10:19:33;10.20;99.90
28071;DHT22;15383;48.408;9.968;2024-02-28T10:21:59;10.20;99.90
28071;DHT22;15383;48.408;9.968;2024-02-28T10:24:24;10.20;99.90
28071;DHT22;15383;48.408;9.968;2024-02-28T10:26:50;10.20;99.90
28071;DHT22;15383;48.408;9.968;2024-02-28T10:29:25;10.20;99.90
28071;DHT22;15383;48.408;9.968;2024-02-28T10:31:51;10.10;99.90
28071;DHT22;15383;48.408;9.968;2024-02-28T10:34:17;10.20;99.90
28071;DHT22;15383;48.408;9.968;2024-02-28T10:36:44;10.20;99.90
28071;DHT22;15383;48.408;9.968;2024-02-28T10:39:11;10.20;99.90
28071;DHT22;15383;48.408;9.968;2024-02-28T10:41:40;10.20;99.90
28071;DHT22;15383;48.408;9.968;2024-02-28T10:44:06;10.20;99.90
28071;DHT22;15383;48.408;9.968;2024-02-28T10:46:32;10.20;99.90
28071;DHT22;15383;48.408;9.968;2024-02-28T10:48:58;10.20;99.90
28071;DHT22;15383;48.408;9.968;2024-02-28T10:51:24;10.20;99.90
28071;DHT22;15383;48.408;9.968;2024-02-28T10:54:10;10.20;99.90
28071;DHT22;15383;48.408;9.968;2024-02-28T10:56:39;10.20;99.90
28071;DHT22;15383;48.408;9.968;2024-02-28T10:59:07;10.20;99.90
28071;DHT22;15383;48.408;9.968;2024-02-28T11:01:38;10.20;99.90
28071;DHT22;15383;48.408;9.968;2024-02-28T11:04:07;10.20;99.90
28071;DHT22;15383;48.408;9.968;2024-02-28T11:06:33;10.20;99.90
28071;DHT22;15383;48.408;9.968;2024-02-28T11:09:00;10.20;99.90
28071;DHT22;15383;48.408;9.968;2024-02-28T11:11:30;10.20;99.90
28071;DHT22;15383;48.408;9.968;2024-02-28T11:13:59;10.20;99.90
28071;DHT22;15383;48.408;9.968;2024-02-28T11:16:29;10.30;99.90
28071;DHT22;15383;48.408;9.968;2024-02-28T11:18:54;10.20;99.90
28071;DHT22;15383;48.408;9.968;2024-02-28T11:21:23;10.30;99.90
28071;DHT22;15383;48.408;9.968;2024-02-28T11:23:50;10.30;99.90
28071;DHT22;15383;48.408;9.968;2024-02-28T11:26:15;10.30;99.90
28071;DHT22;15383;48.408;9.968;2024-02-28T11:28:41;10.30;99.90
28071;DHT22;15383;48.408;9.968;2024-02-28T11:31:08;10.40;99.90
28071;DHT22;15383;48.408;9.968;2024-02-28T11:33:35;10.60;99.90
28071;DHT22;15383;48.408;9.968;2024-02-28T11:36:01;10.80;99.90
28071;DHT22;15383;48.408;9.968;2024-02-28T11:38:28;11.10;99.90
28071;DHT22;15383;48.408;9.968;2024-02-28T11:40:54;11.30;99.90
28071;DHT22;15383;48.408;9.968;2024-02-28T11:43:23;11.30;99.90
28071;DHT22;15383;48.408;9.968;2024-02-28T11:45:49;11.30;99.90
28071;DHT22;15383;48.408;9.968;2024-02-28T11:48:15;11.20;99.90
28071;DHT22;15383;48.408;9.968;2024-02-28T11:50:41;11.10;99.90
28071;DHT22;15383;48.408;9.968;2024-02-28T11:53:08;11.10;99.90
28071;DHT22;15383;48.408;9.968;2024-02-28T11:55:34;11.10;99.90
28071;DHT22;15383;48.408;9.968;2024-02-28T11:57:59;11.10;99.90
28071;DHT22;15383;48.408;9.968;2024-02-28T12:00:25;10.90;99.90
28071;DHT22;15383;48.408;9.968;2024-02-28T12:02:51;10.80;99.90
28071;DHT22;15383;48.408;9.968;2024-02-28T12:05:19;10.70;99.90
28071;DHT22;15383;48.408;9.968;2024-02-28T12:07:45;10.60;99.90
28071;DHT22;15383;48.408;9.968;2024-02-28T12:10:11;10.60;99.90
28071;DHT22;15383;48.408;9.968;2024-02-28T12:12:38;10.60;99.90
28071;DHT22;15383;48.408;9.968;2024-02-28T12:15:05;10.60;99.90
28071;DHT22;15383;48.408;9.968;2024-02-28T12:17:31;10.50;99.90
28071;DHT22;15383;48.408;9.968;2024-02-28T12:19:59;10.50;99.90
28071;DHT22;15383;48.408;9.968;2024-02-28T12:22:25;10.50;99.90
28071;DHT22;15383;48.408;9.968;2024-02-28T12:24:50;10.40;99.90
28071;DHT22;15383;48.408;9.968;2024-02-28T12:27:16;10.40;99.90
28071;DHT22;15383;48.408;9.968;2024-02-28T12:29:41;10.40;99.90
28071;DHT22;15383;48.408;9.968;2024-02-28T12:32:07;10.40;99.90
28071;DHT22;15383;48.408;9.968;2024-02-28T12:34:34;10.40;99.90
28071;DHT22;15383;48.408;9.968;2024-02-28T12:36:59;10.40;99.90
28071;DHT22;15383;48.408;9.968;2024-02-28T12:39:25;10.40;99.90
28071;DHT22;15383;48.408;9.968;2024-02-28T12:41:50;10.40;99.90
28071;DHT22;15383;48.408;9.968;2024-02-28T12:44:16;10.30;99.90
28071;DHT22;15383;48.408;9.968;2024-02-28T12:46:42;10.40;99.90
28071;DHT22;15383;48.408;9.968;2024-02-28T12:49:07;10.40;99.90
28071;DHT22;15383;48.408;9.968;2024-02-28T12:51:40;10.40;99.90
28071;DHT22;15383;48.408;9.968;2024-02-28T12:54:07;10.40;99.90
28071;DHT22;15383;48.408;9.968;2024-02-28T12:56:34;10.40;99.90
28071;DHT22;15383;48.408;9.968;2024-02-28T12:58:59;10.40;99.90
28071;DHT22;15383;48.408;9.968;2024-02-28T13:01:26;10.40;99.90
28071;DHT22;15383;48.408;9.968;2024-02-28T13:03:51;10.40;99.90
28071;DHT22;15383;48.408;9.968;2024-02-28T13:06:18;10.40;99.90
28071;DHT22;15383;48.408;9.968;2024-02-28T13:08:43;10.40;99.90
28071;DHT22;15383;48.408;9.968;2024-02-28T13:11:09;10.40;99.90
28071;DHT22;15383;48.408;9.968;2024-02-28T13:13:36;10.40;99.90
28071;DHT22;15383;48.408;9.968;2024-02-28T13:16:02;10.40;99.90
28071;DHT22;15383;48.408;9.968;2024-02-28T13:18:28;10.40;99.90
28071;DHT22;15383;48.408;9.968;2024-02-28T13:20:53;10.40;99.90
28071;DHT22;15383;48.408;9.968;2024-02-28T13:23:19;10.40;99.90
28071;DHT22;15383;48.408;9.968;2024-02-28T13:25:45;10.40;99.90
28071;DHT22;15383;48.408;9.968;2024-02-28T13:28:10;10.40;99.90
28071;DHT22;15383;48.408;9.968;2024-02-28T13:30:36;10.40;99.90
28071;DHT22;15383;48.408;9.968;2024-02-28T13:33:04;10.40;99.90
28071;DHT22;15383;48.408;9.968;2024-02-28T13:35:30;10.40;99.90
28071;DHT22;15383;48.408;9.968;2024-02-28T13:37:56;10.40;99.90
28071;DHT22;15383;48.408;9.968;2024-02-28T13:40:26;10.40;99.90
28071;DHT22;15383;48.408;9.968;2024-02-28T13:42:52;10.40;99.90
28071;DHT22;15383;48.408;9.968;2024-02-28T13:45:18;10.40;99.90
28071;DHT22;15383;48.408;9.968;2024-02-28T13:47:43;10.30;99.90
28071;DHT22;15383;48.408;9.968;2024-02-28T13:50:09;10.30;99.90
28071;DHT22;15383;48.408;9.968;2024-02-28T13:52:35;10.40;99.90
28071;DHT22;15383;48.408;9.968;2024-02-28T13:55:01;10.40;99.90
28071;DHT22;15383;48.408;9.968;2024-02-28T13:57:27;10.40;99.90
28071;DHT22;15383;48.408;9.968;2024-02-28T13:59:52;10.30;99.90
28071;DHT22;15383;48.408;9.968;2024-02-28T14:02:23;10.30;99.90
28071;DHT22;15383;48.408;9.968;2024-02-28T14:04:52;10.40;99.90
28071;DHT22;15383;48.408;9.968;2024-02-28T14:07:17;10.30;99.90
28071;DHT22;15383;48.408;9.968;2024-02-28T14:09:43;10.40;99.90
28071;DHT22;15383;48.408;9.968;2024-02-28T14:12:10;10.30;99.90
28071;DHT22;15383;48.408;9.968;2024-02-28T14:14:35;10.40;99.90
28071;DHT22;15383;48.408;9.968;2024-02-28T14:17:01;10.40;99.90
28071;DHT22;15383;48.408;9.968;2024-02-28T14:19:27;10.30;99.90
28071;DHT22;15383;48.408;9.968;2024-02-28T14:21:52;10.40;99.90
28071;DHT22;15383;48.408;9.968;2024-02-28T14:24:18;10.40;99.90
28071;DHT22;15383;48.408;9.968;2024-02-28T14:26:45;10.30;99.90
28071;DHT22;15383;48.408;9.968;2024-02-28T14:29:11;10.30;99.90
28071;DHT22;15383;48.408;9.968;2024-02-28T14:31:37;10.30;99.90
28071;DHT22;15383;48.408;9.968;2024-02-28T14:34:02;10.30;99.90
28071;DHT22;15383;48.408;9.968;2024-02-28T14:36:30;10.30;99.90
28071;DHT22;15383;48.408;9.968;2024-02-28T14:38:56;10.30;99.90
28071;DHT22;15383;48.408;9.968;2024-02-28T14:41:21;10.30;99.90
28071;DHT22;15383;48.408;9.968;2024-02-28T14:43:48;10.30;99.90
28071;DHT22;15383;48.408;9.968;2024-02-28T14:46:13;10.30;99.90
28071;DHT22;15383;48.408;9.968;2024-02-28T14:48:40;10.30;99.90
28071;DHT22;15383;48.408;9.968;2024-02-28T14:51:06;10.30;99.90
28071;DHT22;15383;48.408;9.968;2024-02-28T14:53:33;10.30;99.90
28071;DHT22;15383;48.408;9.968;2024-02-28T14:55:59;10.20;99.90
28071;DHT22;15383;48.408;9.968;2024-02-28T14:58:24;10.20;99.90
28071;DHT22;15383;48.408;9.968;2024-02-28T15:00:50;10.30;99.90
28071;DHT22;15383;48.408;9.968;2024-02-28T15:03:16;10.20;99.90
28071;DHT22;15383;48.408;9.968;2024-02-28T15:05:41;10.20;99.90
28071;DHT22;15383;48.408;9.968;2024-02-28T15:08:09;10.20;99.90
28071;DHT22;15383;48.408;9.968;2024-02-28T15:10:35;10.20;99.90
28071;DHT22;15383;48.408;9.968;2024-02-28T15:13:00;10.20;99.90
28071;DHT22;15383;48.408;9.968;2024-02-28T15:15:26;10.20;99.90
28071;DHT22;15383;48.408;9.968;2024-02-28T15:17:53;10.20;99.90
28071;DHT22;15383;48.408;9.968;2024-02-28T15:20:18;10.20;99.90
28071;DHT22;15383;48.408;9.968;2024-02-28T15:22:45;10.30;99.90
28071;DHT22;15383;48.408;9.968;2024-02-28T15:25:11;10.20;99.90